Time,TemperatureF,DewpointF,PressureIn,WindDirection,WindDirectionDegrees,WindSpeedMPH,WindSpeedGustMPH,Humidity,HourlyPrecipIn,Conditions,Clouds,dailyrainin,SoftwareType,DateUTC
2013-03-03 00:00:00,26.0,20.1,30.23,WSW,244,0.0,0.0,78,0.00,,---,0.00,VWS V14.01,2013-03-03 06:00:00,
2013-03-03 00:05:00,25.8,19.9,30.22,WSW,244,0.0,0.0,78,0.00,,---,0.00,VWS V14.01,2013-03-03 06:05:00,
2013-03-03 00:10:00,25.8,19.9,30.22,WSW,244,0.0,0.0,78,0.00,,---,0.00,VWS V14.01,2013-03-03 06:10:00,
2013-03-03 00:15:00,25.8,19.9,30.22,WSW,244,0.0,0.0,78,0.00,,---,0.00,VWS V14.01,2013-03-03 06:15:00,
2013-03-03 00:20:00,25.8,20.2,30.22,WSW,244,0.0,0.0,79,0.00,,---,0.00,VWS V14.01,2013-03-03 06:20:00,
2013-03-03 00:25:00,25.8,20.2,30.22,WSW,244,0.0,0.0,79,0.00,,---,0.00,VWS V14.01,2013-03-03 06:25:00,
2013-03-03 00:30:00,25.8,20.2,30.22,WSW,244,0.0,0.0,79,0.00,,---,0.00,VWS V14.01,2013-03-03 06:30:00,
2013-03-03 00:35:00,25.8,20.2,30.22,WSW,244,0.0,0.0,79,0.00,,---,0.00,VWS V14.01,2013-03-03 06:35:00,
2013-03-03 00:40:00,25.8,20.2,30.22,WSW,244,0.0,0.0,79,0.00,,---,0.00,VWS V14.01,2013-03-03 06:40:00,
2013-03-03 00:45:00,25.8,20.2,30.22,WSW,244,0.0,0.0,79,0.00,,---,0.00,VWS V14.01,2013-03-03 06:45:00,
2013-03-03 00:50:00,25.8,20.2,30.22,WSW,244,0.0,0.0,79,0.00,,---,0.00,VWS V14.01,2013-03-03 06:50:00,
2013-03-03 00:55:00,25.8,20.2,30.22,SSW,211,0.0,0.0,79,0.00,,---,0.00,VWS V14.01,2013-03-03 06:55:00,
2013-03-03 01:00:00,25.8,20.2,30.22,SSW,205,0.0,0.0,79,0.00,,---,0.00,VWS V14.01,2013-03-03 07:00:00,
2013-03-03 01:05:00,25.8,20.2,30.21,SSE,153,0.0,2.0,79,0.00,,---,0.00,VWS V14.01,2013-03-03 07:05:00,
2013-03-03 01:10:00,25.8,20.2,30.21,SSE,157,1.0,2.0,79,0.00,,---,0.00,VWS V14.01,2013-03-03 07:10:00,
2013-03-03 01:15:00,26.0,20.4,30.21,SSE,160,0.0,2.0,79,0.00,,---,0.00,VWS V14.01,2013-03-03 07:15:00,
2013-03-03 01:20:00,26.0,20.4,30.21,SSE,147,1.0,2.0,79,0.00,,---,0.00,VWS V14.01,2013-03-03 07:20:00,
2013-03-03 01:25:00,26.0,20.4,30.21,SSE,157,0.0,2.0,79,0.00,,---,0.00,VWS V14.01,2013-03-03 07:25:00,
2013-03-03 01:30:00,26.1,20.5,30.21,SSE,150,0.0,3.0,79,0.00,,---,0.00,VWS V14.01,2013-03-03 07:30:00,
2013-03-03 01:35:00,26.1,20.5,30.20,SSE,153,0.0,1.0,79,0.00,,---,0.00,VWS V14.01,2013-03-03 07:35:00,
2013-03-03 01:40:00,26.0,20.4,30.20,SSE,155,0.0,2.0,79,0.00,,---,0.00,VWS V14.01,2013-03-03 07:40:00,
2013-03-03 01:45:00,26.0,20.4,30.20,SSE,160,0.0,2.0,79,0.00,,---,0.00,VWS V14.01,2013-03-03 07:45:00,
2013-03-03 01:50:00,25.8,20.2,30.19,SSE,158,0.0,2.0,79,0.00,,---,0.00,VWS V14.01,2013-03-03 07:50:00,
2013-03-03 01:55:00,25.7,20.1,30.19,SSE,163,0.0,2.0,79,0.00,,---,0.00,VWS V14.01,2013-03-03 07:55:00,
2013-03-03 02:00:00,25.7,20.1,30.19,SSE,154,0.0,2.0,79,0.00,,---,0.00,VWS V14.01,2013-03-03 08:00:00,
2013-03-03 02:05:00,25.6,20.0,30.18,SE,135,1.0,2.0,79,0.00,,---,0.00,VWS V14.01,2013-03-03 08:05:00,
2013-03-03 02:10:00,25.6,20.0,30.18,SE,145,0.0,2.0,79,0.00,,---,0.00,VWS V14.01,2013-03-03 08:10:00,
2013-03-03 02:15:00,25.4,19.8,30.18,SE,146,2.0,2.0,79,0.00,,---,0.00,VWS V14.01,2013-03-03 08:15:00,
2013-03-03 02:20:00,25.4,19.8,30.18,SSE,157,0.0,2.0,79,0.00,,---,0.00,VWS V14.01,2013-03-03 08:20:00,
2013-03-03 02:25:00,25.3,19.7,30.18,SSE,161,0.0,2.0,79,0.00,,---,0.00,VWS V14.01,2013-03-03 08:25:00,
2013-03-03 02:30:00,25.1,19.5,30.18,SSE,161,0.0,2.0,79,0.00,,---,0.00,VWS V14.01,2013-03-03 08:30:00,
2013-03-03 02:35:00,25.0,19.4,30.17,SSE,161,0.0,0.0,79,0.00,,---,0.00,VWS V14.01,2013-03-03 08:35:00,
2013-03-03 02:40:00,24.8,19.2,30.17,SSE,161,0.0,0.0,79,0.00,,---,0.00,VWS V14.01,2013-03-03 08:40:00,
2013-03-03 02:45:00,24.7,19.1,30.17,SSE,161,0.0,1.0,79,0.00,,---,0.00,VWS V14.01,2013-03-03 08:45:00,
2013-03-03 02:50:00,24.5,18.9,30.17,SSE,161,0.0,1.0,79,0.00,,---,0.00,VWS V14.01,2013-03-03 08:50:00,
2013-03-03 02:55:00,24.4,18.8,30.17,SSE,161,0.0,1.0,79,0.00,,---,0.00,VWS V14.01,2013-03-03 08:55:00,
2013-03-03 03:00:00,24.2,18.6,30.17,SSE,161,0.0,1.0,79,0.00,,---,0.00,VWS V14.01,2013-03-03 09:00:00,
2013-03-03 03:05:00,24.1,18.5,30.16,SSE,161,0.0,1.0,79,0.00,,---,0.00,VWS V14.01,2013-03-03 09:05:00,
2013-03-03 03:10:00,23.9,18.4,30.16,SSE,161,0.0,2.0,79,0.00,,---,0.00,VWS V14.01,2013-03-03 09:10:00,
2013-03-03 03:15:00,23.8,18.2,30.16,SSE,161,0.0,2.0,79,0.00,,---,0.00,VWS V14.01,2013-03-03 09:15:00,
2013-03-03 03:20:00,23.6,18.1,30.15,SSE,159,0.0,2.0,79,0.00,,---,0.00,VWS V14.01,2013-03-03 09:20:00,
2013-03-03 03:25:00,23.6,18.1,30.15,SSE,159,0.0,2.0,79,0.00,,---,0.00,VWS V14.01,2013-03-03 09:25:00,
2013-03-03 03:30:00,23.5,18.0,30.15,SSE,156,0.0,2.0,79,0.00,,---,0.00,VWS V14.01,2013-03-03 09:30:00,
2013-03-03 03:35:00,23.5,18.0,30.15,SSE,157,0.0,1.0,79,0.00,,---,0.00,VWS V14.01,2013-03-03 09:35:00,
2013-03-03 03:40:00,23.5,18.0,30.15,SSE,157,0.0,2.0,79,0.00,,---,0.00,VWS V14.01,2013-03-03 09:40:00,
2013-03-03 03:45:00,23.3,17.8,30.15,SSE,154,0.0,2.0,79,0.00,,---,0.00,VWS V14.01,2013-03-03 09:45:00,
2013-03-03 03:50:00,23.3,17.8,30.14,SSE,154,0.0,2.0,79,0.00,,---,0.00,VWS V14.01,2013-03-03 09:50:00,
2013-03-03 03:55:00,23.0,17.5,30.14,SSE,154,0.0,2.0,79,0.00,,---,0.00,VWS V14.01,2013-03-03 09:55:00,
2013-03-03 04:00:00,22.9,17.4,30.14,SSE,154,0.0,2.0,79,0.00,,---,0.00,VWS V14.01,2013-03-03 10:00:00,
2013-03-03 04:05:00,22.9,17.4,30.14,SE,143,1.0,2.0,79,0.00,,---,0.00,VWS V14.01,2013-03-03 10:05:00,
2013-03-03 04:10:00,22.7,17.5,30.14,SE,131,0.0,3.0,80,0.00,,---,0.00,VWS V14.01,2013-03-03 10:10:00,
2013-03-03 04:15:00,22.7,17.5,30.14,SSE,150,0.0,3.0,80,0.00,,---,0.00,VWS V14.01,2013-03-03 10:15:00,
2013-03-03 04:20:00,22.5,17.0,30.13,South,180,0.0,3.0,79,0.00,,---,0.00,VWS V14.01,2013-03-03 10:20:00,
2013-03-03 04:25:00,22.2,17.0,30.13,SSE,158,0.0,3.0,80,0.00,,---,0.00,VWS V14.01,2013-03-03 10:25:00,
2013-03-03 04:30:00,22.2,17.0,30.13,SSE,160,0.0,3.0,80,0.00,,---,0.00,VWS V14.01,2013-03-03 10:30:00,
2013-03-03 04:35:00,22.1,16.9,30.13,SSE,163,0.0,1.0,80,0.00,,---,0.00,VWS V14.01,2013-03-03 10:35:00,
2013-03-03 04:40:00,22.1,16.9,30.13,SSE,162,0.0,2.0,80,0.00,,---,0.00,VWS V14.01,2013-03-03 10:40:00,
2013-03-03 04:45:00,22.1,16.9,30.13,SSE,162,0.0,2.0,80,0.00,,---,0.00,VWS V14.01,2013-03-03 10:45:00,
2013-03-03 04:50:00,22.1,16.9,30.13,SSE,167,0.0,2.0,80,0.00,,---,0.00,VWS V14.01,2013-03-03 10:50:00,
2013-03-03 04:55:00,22.2,17.0,30.13,South,175,1.0,4.0,80,0.00,,---,0.00,VWS V14.01,2013-03-03 10:55:00,
2013-03-03 05:00:00,22.2,17.0,30.13,South,169,0.0,4.0,80,0.00,,---,0.00,VWS V14.01,2013-03-03 11:00:00,
2013-03-03 05:05:00,22.2,17.0,30.12,SSE,165,0.0,2.0,80,0.00,,---,0.00,VWS V14.01,2013-03-03 11:05:00,
2013-03-03 05:10:00,22.2,17.0,30.12,SSE,165,0.0,2.0,80,0.00,,---,0.00,VWS V14.01,2013-03-03 11:10:00,
2013-03-03 05:15:00,22.2,17.0,30.12,SSE,167,0.0,3.0,80,0.00,,---,0.00,VWS V14.01,2013-03-03 11:15:00,
2013-03-03 05:20:00,22.4,17.2,30.12,SE,145,1.0,3.0,80,0.00,,---,0.00,VWS V14.01,2013-03-03 11:20:00,
2013-03-03 05:25:00,22.2,17.0,30.12,SSE,156,0.0,3.0,80,0.00,,---,0.00,VWS V14.01,2013-03-03 11:25:00,
2013-03-03 05:30:00,22.2,17.0,30.12,South,170,0.0,3.0,80,0.00,,---,0.00,VWS V14.01,2013-03-03 11:30:00,
2013-03-03 05:35:00,22.2,17.0,30.12,SSE,159,0.0,2.0,80,0.00,,---,0.00,VWS V14.01,2013-03-03 11:35:00,
2013-03-03 05:40:00,22.4,17.2,30.12,SSE,157,1.0,2.0,80,0.00,,---,0.00,VWS V14.01,2013-03-03 11:40:00,
2013-03-03 05:45:00,22.4,17.5,30.12,SSE,161,0.0,2.0,81,0.00,,---,0.00,VWS V14.01,2013-03-03 11:45:00,
2013-03-03 05:50:00,22.5,17.6,30.11,SSE,159,1.0,3.0,81,0.00,,---,0.00,VWS V14.01,2013-03-03 11:50:00,
2013-03-03 05:55:00,22.5,17.6,30.11,SSE,155,0.0,3.0,81,0.00,,---,0.00,VWS V14.01,2013-03-03 11:55:00,
2013-03-03 06:00:00,22.5,17.6,30.11,South,170,1.0,3.0,81,0.00,,---,0.00,VWS V14.01,2013-03-03 12:00:00,
2013-03-03 06:05:00,22.5,17.6,30.11,SSE,160,1.0,3.0,81,0.00,,---,0.00,VWS V14.01,2013-03-03 12:05:00,
2013-03-03 06:10:00,22.7,17.8,30.11,SE,143,2.0,4.0,81,0.00,,---,0.00,VWS V14.01,2013-03-03 12:10:00,
2013-03-03 06:15:00,22.7,17.8,30.11,South,171,2.0,4.0,81,0.00,,---,0.00,VWS V14.01,2013-03-03 12:15:00,
2013-03-03 06:20:00,22.9,18.0,30.11,SSE,161,1.0,4.0,81,0.00,,---,0.00,VWS V14.01,2013-03-03 12:20:00,
2013-03-03 06:25:00,22.9,18.0,30.11,SSE,165,3.0,4.0,81,0.00,,---,0.00,VWS V14.01,2013-03-03 12:25:00,
2013-03-03 06:30:00,22.9,18.0,30.11,SSE,161,2.0,4.0,81,0.00,,---,0.00,VWS V14.01,2013-03-03 12:30:00,
2013-03-03 06:35:00,22.9,18.0,30.11,SSE,153,0.0,2.0,81,0.00,,---,0.00,VWS V14.01,2013-03-03 12:35:00,
2013-03-03 06:40:00,23.0,18.0,30.11,SSE,162,1.0,2.0,81,0.00,,---,0.00,VWS V14.01,2013-03-03 12:40:00,
2013-03-03 06:45:00,23.0,18.0,30.11,SE,144,0.0,3.0,81,0.00,,---,0.00,VWS V14.01,2013-03-03 12:45:00,
2013-03-03 06:50:00,23.2,18.2,30.10,SSE,165,0.0,3.0,81,0.00,,---,0.00,VWS V14.01,2013-03-03 12:50:00,
2013-03-03 06:55:00,23.2,18.2,30.10,SSE,148,0.0,3.0,81,0.00,,---,0.00,VWS V14.01,2013-03-03 12:55:00,
2013-03-03 07:00:00,23.2,18.2,30.10,SSE,157,1.0,3.0,81,0.00,,---,0.00,VWS V14.01,2013-03-03 13:00:00,
2013-03-03 07:05:00,23.3,18.3,30.10,SE,136,0.0,3.0,81,0.00,,---,0.00,VWS V14.01,2013-03-03 13:05:00,
2013-03-03 07:10:00,23.5,18.5,30.10,ESE,107,0.0,3.0,81,0.00,,---,0.00,VWS V14.01,2013-03-03 13:10:00,
2013-03-03 07:15:00,23.5,18.5,30.10,SSE,160,1.0,3.0,81,0.00,,---,0.00,VWS V14.01,2013-03-03 13:15:00,
2013-03-03 07:20:00,23.5,18.5,30.10,SSE,167,0.0,3.0,81,0.00,,---,0.00,VWS V14.01,2013-03-03 13:20:00,
2013-03-03 07:25:00,23.6,18.6,30.10,SSE,163,2.0,3.0,81,0.00,,---,0.00,VWS V14.01,2013-03-03 13:25:00,
2013-03-03 07:30:00,23.6,18.6,30.10,South,170,1.0,3.0,81,0.00,,---,0.00,VWS V14.01,2013-03-03 13:30:00,
2013-03-03 07:35:00,23.6,18.6,30.09,SSE,162,1.0,3.0,81,0.00,,---,0.00,VWS V14.01,2013-03-03 13:35:00,
2013-03-03 07:40:00,23.8,18.8,30.09,SSE,161,1.0,3.0,81,0.00,,---,0.00,VWS V14.01,2013-03-03 13:40:00,
2013-03-03 07:45:00,23.9,18.9,30.09,SSE,155,0.0,3.0,81,0.00,,---,0.00,VWS V14.01,2013-03-03 13:45:00,
2013-03-03 07:50:00,24.1,19.1,30.09,SE,139,1.0,3.0,81,0.00,,---,0.00,VWS V14.01,2013-03-03 13:50:00,
2013-03-03 07:55:00,24.2,19.2,30.09,SSE,154,2.0,3.0,81,0.00,,---,0.00,VWS V14.01,2013-03-03 13:55:00,
2013-03-03 08:00:00,24.5,19.5,30.09,SSE,162,1.0,4.0,81,0.00,,---,0.00,VWS V14.01,2013-03-03 14:00:00,
2013-03-03 08:05:00,24.7,19.7,30.09,SSE,166,0.0,3.0,81,0.00,,---,0.00,VWS V14.01,2013-03-03 14:05:00,
2013-03-03 08:10:00,25.0,20.0,30.09,SE,135,0.0,3.0,81,0.00,,---,0.00,VWS V14.01,2013-03-03 14:10:00,
2013-03-03 08:15:00,25.6,20.6,30.09,SSE,166,3.0,4.0,81,0.00,,---,0.00,VWS V14.01,2013-03-03 14:15:00,
2013-03-03 08:20:00,26.1,21.1,30.08,South,173,1.0,4.0,81,0.00,,---,0.00,VWS V14.01,2013-03-03 14:20:00,
2013-03-03 08:25:00,26.6,21.6,30.08,SSE,153,3.0,4.0,81,0.00,,---,0.00,VWS V14.01,2013-03-03 14:25:00,
2013-03-03 08:30:00,27.2,22.1,30.08,South,176,1.0,5.0,81,0.00,,---,0.00,VWS V14.01,2013-03-03 14:30:00,
2013-03-03 08:35:00,27.9,22.8,30.08,SSE,150,0.0,3.0,81,0.00,,---,0.00,VWS V14.01,2013-03-03 14:35:00,
2013-03-03 08:40:00,28.7,23.6,30.08,SSE,152,0.0,5.0,81,0.00,,---,0.00,VWS V14.01,2013-03-03 14:40:00,
2013-03-03 08:45:00,29.4,24.0,30.08,South,170,0.0,5.0,80,0.00,,---,0.00,VWS V14.01,2013-03-03 14:45:00,
2013-03-03 08:50:00,30.3,24.9,30.07,SSE,151,0.0,5.0,80,0.00,,---,0.00,VWS V14.01,2013-03-03 14:50:00,
2013-03-03 08:55:00,30.9,25.2,30.07,SE,143,2.0,7.0,79,0.00,,---,0.00,VWS V14.01,2013-03-03 14:55:00,
2013-03-03 09:00:00,31.2,25.5,30.07,SE,140,5.0,7.0,79,0.00,,---,0.00,VWS V14.01,2013-03-03 15:00:00,
2013-03-03 09:05:00,31.3,25.6,30.07,SSE,163,3.0,5.0,79,0.00,,---,0.00,VWS V14.01,2013-03-03 15:05:00,
2013-03-03 09:10:00,31.3,25.6,30.07,SSE,160,1.0,7.0,79,0.00,,---,0.00,VWS V14.01,2013-03-03 15:10:00,
2013-03-03 09:15:00,31.5,25.4,30.07,SE,146,3.0,7.0,78,0.00,,---,0.00,VWS V14.01,2013-03-03 15:15:00,
2013-03-03 09:20:00,31.6,25.5,30.07,SSE,159,2.0,7.0,78,0.00,,---,0.00,VWS V14.01,2013-03-03 15:20:00,
2013-03-03 09:25:00,31.8,25.7,30.07,SSE,155,4.0,7.0,78,0.00,,---,0.00,VWS V14.01,2013-03-03 15:25:00,
2013-03-03 09:30:00,32.1,26.0,30.07,SSW,192,2.0,7.0,78,0.00,,---,0.00,VWS V14.01,2013-03-03 15:30:00,
2013-03-03 09:35:00,32.7,26.6,30.06,South,179,4.0,5.0,78,0.00,,---,0.00,VWS V14.01,2013-03-03 15:35:00,
2013-03-03 09:40:00,33.4,27.0,30.06,South,172,5.0,6.0,77,0.00,,---,0.00,VWS V14.01,2013-03-03 15:40:00,
2013-03-03 09:45:00,33.8,27.4,30.06,SSE,165,3.0,7.0,77,0.00,,---,0.00,VWS V14.01,2013-03-03 15:45:00,
2013-03-03 09:50:00,34.1,27.3,30.05,South,181,0.0,7.0,76,0.00,,---,0.00,VWS V14.01,2013-03-03 15:50:00,
2013-03-03 09:55:00,34.4,27.6,30.05,SE,140,3.0,7.0,76,0.00,,---,0.00,VWS V14.01,2013-03-03 15:55:00,
2013-03-03 10:00:00,34.6,27.5,30.05,SSE,152,4.0,7.0,75,0.00,,---,0.00,VWS V14.01,2013-03-03 16:00:00,
2013-03-03 10:05:00,34.9,27.8,30.05,West,266,4.0,6.0,75,0.00,,---,0.00,VWS V14.01,2013-03-03 16:05:00,
2013-03-03 10:10:00,35.3,28.2,30.05,SE,127,3.0,8.0,75,0.00,,---,0.00,VWS V14.01,2013-03-03 16:10:00,
2013-03-03 10:15:00,35.8,28.7,30.05,SW,214,3.0,10.0,75,0.00,,---,0.00,VWS V14.01,2013-03-03 16:15:00,
2013-03-03 10:20:00,36.2,28.7,30.04,SSE,151,2.0,10.0,74,0.00,,---,0.00,VWS V14.01,2013-03-03 16:20:00,
2013-03-03 10:25:00,36.5,29.0,30.04,SSE,150,1.0,10.0,74,0.00,,---,0.00,VWS V14.01,2013-03-03 16:25:00,
2013-03-03 10:30:00,36.6,28.8,30.04,SSE,153,2.0,10.0,73,0.00,,---,0.00,VWS V14.01,2013-03-03 16:30:00,
2013-03-03 10:35:00,36.8,29.0,30.04,SSE,155,3.0,7.0,73,0.00,,---,0.00,VWS V14.01,2013-03-03 16:35:00,
2013-03-03 10:40:00,36.9,29.1,30.04,SSE,155,1.0,7.0,73,0.00,,---,0.00,VWS V14.01,2013-03-03 16:40:00,
2013-03-03 10:45:00,36.9,29.1,30.04,South,173,2.0,7.0,73,0.00,,---,0.00,VWS V14.01,2013-03-03 16:45:00,
2013-03-03 10:50:00,37.0,29.2,30.04,SE,140,3.0,7.0,73,0.00,,---,0.00,VWS V14.01,2013-03-03 16:50:00,
2013-03-03 10:55:00,37.3,29.5,30.04,SSE,167,2.0,8.0,73,0.00,,---,0.00,VWS V14.01,2013-03-03 16:55:00,
2013-03-03 11:00:00,37.8,29.6,30.04,East,101,1.0,8.0,72,0.00,,---,0.00,VWS V14.01,2013-03-03 17:00:00,
2013-03-03 11:05:00,37.8,29.6,30.03,SE,141,2.0,7.0,72,0.00,,---,0.00,VWS V14.01,2013-03-03 17:05:00,
2013-03-03 11:10:00,37.8,29.6,30.03,SSE,150,1.0,7.0,72,0.00,,---,0.00,VWS V14.01,2013-03-03 17:10:00,
2013-03-03 11:15:00,37.8,29.6,30.03,SE,146,8.0,8.0,72,0.00,,---,0.00,VWS V14.01,2013-03-03 17:15:00,
2013-03-03 11:20:00,37.6,29.4,30.02,South,171,2.0,8.0,72,0.00,,---,0.00,VWS V14.01,2013-03-03 17:20:00,
2013-03-03 11:25:00,37.8,29.6,30.02,ESE,123,5.0,8.0,72,0.00,,---,0.00,VWS V14.01,2013-03-03 17:25:00,
2013-03-03 11:30:00,37.9,29.4,30.02,South,182,4.0,8.0,71,0.00,,---,0.00,VWS V14.01,2013-03-03 17:30:00,
2013-03-03 11:35:00,38.2,29.6,30.01,SSE,149,4.0,7.0,71,0.00,,---,0.00,VWS V14.01,2013-03-03 17:35:00,
2013-03-03 11:40:00,38.6,30.0,30.01,ESE,121,2.0,7.0,71,0.00,,---,0.00,VWS V14.01,2013-03-03 17:40:00,
2013-03-03 11:45:00,39.1,30.5,30.01,SSE,150,0.0,7.0,71,0.00,,---,0.00,VWS V14.01,2013-03-03 17:45:00,
2013-03-03 11:50:00,39.3,30.7,30.01,SE,137,1.0,7.0,71,0.00,,---,0.00,VWS V14.01,2013-03-03 17:50:00,
2013-03-03 11:55:00,39.1,30.2,30.01,SSE,168,3.0,7.0,70,0.00,,---,0.00,VWS V14.01,2013-03-03 17:55:00,
2013-03-03 12:00:00,38.9,30.0,30.01,SSE,156,1.0,8.0,70,0.00,,---,0.00,VWS V14.01,2013-03-03 18:00:00,
2013-03-03 12:05:00,38.9,30.0,30.00,SSE,163,2.0,6.0,70,0.00,,---,0.00,VWS V14.01,2013-03-03 18:05:00,
2013-03-03 12:10:00,39.2,30.2,30.00,South,173,1.0,6.0,70,0.00,,---,0.00,VWS V14.01,2013-03-03 18:10:00,
2013-03-03 12:15:00,39.5,30.5,30.00,SSE,164,1.0,10.0,70,0.00,,---,0.00,VWS V14.01,2013-03-03 18:15:00,
2013-03-03 12:20:00,39.8,30.8,30.00,SSE,163,2.0,10.0,70,0.00,,---,0.00,VWS V14.01,2013-03-03 18:20:00,
2013-03-03 12:24:00,39.9,30.6,30.00,SSE,165,2.0,10.0,69,0.00,,---,0.00,VWS V14.01,2013-03-03 18:24:00,
2013-03-03 12:29:00,40.1,31.1,30.00,South,182,1.0,10.0,70,0.00,,---,0.00,VWS V14.01,2013-03-03 18:29:00,
2013-03-03 12:30:00,40.2,30.9,29.98,ESE,119,1.0,10.0,69,0.00,,---,0.00,VWS V14.01,2013-03-03 18:30:00,
2013-03-03 12:34:00,40.3,31.0,29.98,SSE,150,0.0,4.0,69,0.00,,---,0.00,VWS V14.01,2013-03-03 18:34:00,
2013-03-03 12:39:00,40.6,31.2,29.98,SSE,162,2.0,4.0,69,0.00,,---,0.00,VWS V14.01,2013-03-03 18:39:00,
2013-03-03 12:44:00,40.9,31.5,29.98,SSE,162,0.0,5.0,69,0.00,,---,0.00,VWS V14.01,2013-03-03 18:44:00,
2013-03-03 12:49:00,40.9,31.5,29.98,ESE,116,2.0,5.0,69,0.00,,---,0.00,VWS V14.01,2013-03-03 18:49:00,
2013-03-03 12:54:00,40.9,31.5,29.98,SSE,158,0.0,5.0,69,0.00,,---,0.00,VWS V14.01,2013-03-03 18:54:00,
2013-03-03 12:59:00,41.1,31.7,29.98,SSE,148,1.0,5.0,69,0.00,,---,0.00,VWS V14.01,2013-03-03 18:59:00,
2013-03-03 13:00:00,41.1,31.4,29.97,SE,134,1.0,5.0,68,0.00,,---,0.00,VWS V14.01,2013-03-03 19:00:00,
2013-03-03 13:04:00,41.1,31.4,29.97,ESE,123,0.0,4.0,68,0.00,,---,0.00,VWS V14.01,2013-03-03 19:04:00,
2013-03-03 13:09:00,40.9,31.2,29.97,South,169,1.0,6.0,68,0.00,,---,0.00,VWS V14.01,2013-03-03 19:09:00,
2013-03-03 13:14:00,40.6,30.9,29.97,SSE,159,0.0,6.0,68,0.00,,---,0.00,VWS V14.01,2013-03-03 19:14:00,
2013-03-03 13:19:00,40.5,30.8,29.96,SE,146,2.0,6.0,68,0.00,,---,0.00,VWS V14.01,2013-03-03 19:19:00,
2013-03-03 13:24:00,40.5,30.8,29.96,ESE,121,1.0,6.0,68,0.00,,---,0.00,VWS V14.01,2013-03-03 19:24:00,
2013-03-03 13:29:00,40.6,30.9,29.96,SSE,152,0.0,6.0,68,0.00,,---,0.00,VWS V14.01,2013-03-03 19:29:00,
2013-03-03 13:30:00,40.6,30.9,29.95,SSE,155,0.0,6.0,68,0.00,,---,0.00,VWS V14.01,2013-03-03 19:30:00,
2013-03-03 13:34:00,40.8,31.1,29.95,SSE,161,2.0,5.0,68,0.00,,---,0.00,VWS V14.01,2013-03-03 19:34:00,
2013-03-03 13:39:00,41.1,31.4,29.95,SSE,148,4.0,6.0,68,0.00,,---,0.00,VWS V14.01,2013-03-03 19:39:00,
2013-03-03 13:44:00,41.1,31.4,29.95,SSE,147,3.0,6.0,68,0.00,,---,0.00,VWS V14.01,2013-03-03 19:44:00,
2013-03-03 13:49:00,40.9,31.2,29.94,SE,141,5.0,6.0,68,0.00,,---,0.00,VWS V14.01,2013-03-03 19:49:00,
2013-03-03 13:54:00,40.9,31.2,29.94,SSE,167,2.0,6.0,68,0.00,,---,0.00,VWS V14.01,2013-03-03 19:54:00,
2013-03-03 13:59:00,40.8,31.1,29.94,ESE,113,0.0,6.0,68,0.00,,---,0.00,VWS V14.01,2013-03-03 19:59:00,
2013-03-03 14:00:00,40.8,31.1,29.93,East,98,1.0,6.0,68,0.00,,---,0.00,VWS V14.01,2013-03-03 20:00:00,
2013-03-03 14:04:00,40.8,31.1,29.93,East,98,0.0,5.0,68,0.00,,---,0.00,VWS V14.01,2013-03-03 20:04:00,
2013-03-03 14:09:00,40.8,30.7,29.93,ESE,111,2.0,9.0,67,0.00,,---,0.00,VWS V14.01,2013-03-03 20:09:00,
2013-03-03 14:14:00,40.8,30.7,29.93,South,171,2.0,9.0,67,0.00,,---,0.00,VWS V14.01,2013-03-03 20:14:00,
2013-03-03 14:19:00,40.6,30.5,29.93,SE,134,1.0,9.0,67,0.00,,---,0.00,VWS V14.01,2013-03-03 20:19:00,
2013-03-03 14:24:00,40.8,30.7,29.93,East,101,0.0,9.0,67,0.00,,---,0.00,VWS V14.01,2013-03-03 20:24:00,
2013-03-03 14:29:00,40.9,30.8,29.93,South,171,2.0,9.0,67,0.00,,---,0.00,VWS V14.01,2013-03-03 20:29:00,
2013-03-03 14:30:00,40.9,30.8,29.92,SE,136,1.0,9.0,67,0.00,,---,0.00,VWS V14.01,2013-03-03 20:30:00,
2013-03-03 14:34:00,40.9,30.8,29.92,SSE,151,1.0,6.0,67,0.00,,---,0.00,VWS V14.01,2013-03-03 20:34:00,
2013-03-03 14:39:00,40.9,30.8,29.92,SE,146,2.0,6.0,67,0.00,,---,0.00,VWS V14.01,2013-03-03 20:39:00,
2013-03-03 14:44:00,41.1,31.0,29.92,ESE,123,2.0,8.0,67,0.00,,---,0.00,VWS V14.01,2013-03-03 20:44:00,
2013-03-03 14:49:00,41.3,31.2,29.91,SE,126,1.0,8.0,67,0.00,,---,0.00,VWS V14.01,2013-03-03 20:49:00,
2013-03-03 14:54:00,41.8,31.3,29.91,SSE,152,1.0,8.0,66,0.00,,---,0.00,VWS V14.01,2013-03-03 20:54:00,
2013-03-03 14:59:00,41.8,31.3,29.91,SSE,152,4.0,8.0,66,0.00,,---,0.00,VWS V14.01,2013-03-03 20:59:00,
2013-03-03 15:00:00,41.8,31.3,29.91,SE,140,2.0,8.0,66,0.00,,---,0.00,VWS V14.01,2013-03-03 21:00:00,
2013-03-03 15:04:00,41.8,31.3,29.91,SE,144,3.0,4.0,66,0.00,,---,0.00,VWS V14.01,2013-03-03 21:04:00,
2013-03-03 15:09:00,42.1,31.6,29.91,SSE,154,2.0,5.0,66,0.00,,---,0.00,VWS V14.01,2013-03-03 21:09:00,
2013-03-03 15:14:00,42.3,31.8,29.91,South,171,3.0,5.0,66,0.00,,---,0.00,VWS V14.01,2013-03-03 21:14:00,
2013-03-03 15:19:00,42.3,31.8,29.90,South,180,2.0,7.0,66,0.00,,---,0.00,VWS V14.01,2013-03-03 21:19:00,
2013-03-03 15:24:00,42.3,31.8,29.90,ESE,123,1.0,7.0,66,0.00,,---,0.00,VWS V14.01,2013-03-03 21:24:00,
2013-03-03 15:29:00,42.2,31.3,29.90,ESE,117,0.0,7.0,65,0.00,,---,0.00,VWS V14.01,2013-03-03 21:29:00,
2013-03-03 15:30:00,42.1,31.6,29.90,SE,143,2.0,7.0,66,0.00,,---,0.00,VWS V14.01,2013-03-03 21:30:00,
2013-03-03 15:34:00,41.9,31.4,29.90,SSE,161,2.0,5.0,66,0.00,,---,0.00,VWS V14.01,2013-03-03 21:34:00,
2013-03-03 15:39:00,41.6,30.7,29.90,SE,140,2.0,5.0,65,0.00,,---,0.00,VWS V14.01,2013-03-03 21:39:00,
2013-03-03 15:44:00,41.5,30.6,29.90,ESE,109,3.0,6.0,65,0.00,,---,0.00,VWS V14.01,2013-03-03 21:44:00,
2013-03-03 15:49:00,41.2,30.3,29.90,SE,141,2.0,6.0,65,0.00,,---,0.00,VWS V14.01,2013-03-03 21:49:00,
2013-03-03 15:54:00,41.1,30.2,29.90,South,186,4.0,7.0,65,0.00,,---,0.00,VWS V14.01,2013-03-03 21:54:00,
2013-03-03 15:59:00,41.1,30.6,29.90,SE,146,2.0,7.0,66,0.00,,---,0.00,VWS V14.01,2013-03-03 21:59:00,
2013-03-03 16:00:00,41.1,30.2,29.89,East,98,0.0,7.0,65,0.00,,---,0.00,VWS V14.01,2013-03-03 22:00:00,
2013-03-03 16:04:00,40.9,30.1,29.89,SE,144,2.0,3.0,65,0.00,,---,0.00,VWS V14.01,2013-03-03 22:04:00,
2013-03-03 16:09:00,40.9,30.1,29.89,SSE,165,2.0,6.0,65,0.00,,---,0.00,VWS V14.01,2013-03-03 22:09:00,
2013-03-03 16:14:00,40.9,30.1,29.89,SE,136,3.0,6.0,65,0.00,,---,0.00,VWS V14.01,2013-03-03 22:14:00,
2013-03-03 16:19:00,40.9,30.1,29.89,SE,144,1.0,6.0,65,0.00,,---,0.00,VWS V14.01,2013-03-03 22:19:00,
2013-03-03 16:24:00,40.8,30.0,29.89,ESE,117,0.0,6.0,65,0.00,,---,0.00,VWS V14.01,2013-03-03 22:24:00,
2013-03-03 16:29:00,40.8,30.0,29.89,SE,140,2.0,6.0,65,0.00,,---,0.00,VWS V14.01,2013-03-03 22:29:00,
2013-03-03 16:30:00,40.8,30.0,29.89,SE,130,1.0,6.0,65,0.00,,---,0.00,VWS V14.01,2013-03-03 22:30:00,
2013-03-03 16:34:00,40.8,30.0,29.89,ESE,105,1.0,5.0,65,0.00,,---,0.00,VWS V14.01,2013-03-03 22:34:00,
2013-03-03 16:39:00,40.8,30.0,29.89,SE,132,0.0,5.0,65,0.00,,---,0.00,VWS V14.01,2013-03-03 22:39:00,
2013-03-03 16:44:00,40.6,30.1,29.89,SE,133,1.0,5.0,66,0.00,,---,0.00,VWS V14.01,2013-03-03 22:44:00,
2013-03-03 16:49:00,40.6,30.1,29.88,ESE,112,2.0,5.0,66,0.00,,---,0.00,VWS V14.01,2013-03-03 22:49:00,
2013-03-03 16:54:00,40.5,30.0,29.88,SE,138,1.0,5.0,66,0.00,,---,0.00,VWS V14.01,2013-03-03 22:54:00,
2013-03-03 16:59:00,40.5,30.0,29.88,East,96,1.0,5.0,66,0.00,,---,0.00,VWS V14.01,2013-03-03 22:59:00,
2013-03-03 17:00:00,40.3,29.9,29.88,East,89,2.0,5.0,66,0.00,,---,0.00,VWS V14.01,2013-03-03 23:00:00,
2013-03-03 17:04:00,40.3,29.9,29.88,ESE,109,3.0,3.0,66,0.00,,---,0.00,VWS V14.01,2013-03-03 23:04:00,
2013-03-03 17:09:00,40.3,29.9,29.88,East,101,1.0,5.0,66,0.00,,---,0.00,VWS V14.01,2013-03-03 23:09:00,
2013-03-03 17:14:00,40.2,29.8,29.88,ESE,105,1.0,5.0,66,0.00,,---,0.00,VWS V14.01,2013-03-03 23:14:00,
2013-03-03 17:19:00,40.1,29.7,29.88,East,84,2.0,5.0,66,0.00,,---,0.00,VWS V14.01,2013-03-03 23:19:00,
2013-03-03 17:24:00,39.9,29.5,29.88,East,97,3.0,7.0,66,0.00,,---,0.00,VWS V14.01,2013-03-03 23:24:00,
2013-03-03 17:29:00,39.8,29.4,29.88,ESE,107,1.0,7.0,66,0.00,,---,0.00,VWS V14.01,2013-03-03 23:29:00,
2013-03-03 17:30:00,39.8,29.4,29.88,East,100,0.0,7.0,66,0.00,,---,0.00,VWS V14.01,2013-03-03 23:30:00,
2013-03-03 17:34:00,39.8,29.4,29.88,East,97,2.0,5.0,66,0.00,,---,0.00,VWS V14.01,2013-03-03 23:34:00,
2013-03-03 17:39:00,39.6,29.2,29.88,East,95,2.0,8.0,66,0.00,,---,0.00,VWS V14.01,2013-03-03 23:39:00,
2013-03-03 17:44:00,39.6,29.2,29.88,SE,132,5.0,8.0,66,0.00,,---,0.00,VWS V14.01,2013-03-03 23:44:00,
2013-03-03 17:49:00,39.6,29.2,29.86,ESE,115,2.0,8.0,66,0.00,,---,0.00,VWS V14.01,2013-03-03 23:49:00,
2013-03-03 17:54:00,39.5,29.1,29.86,East,82,1.0,8.0,66,0.00,,---,0.00,VWS V14.01,2013-03-03 23:54:00,
2013-03-03 17:59:00,39.3,28.9,29.86,SE,124,2.0,8.0,66,0.00,,---,0.00,VWS V14.01,2013-03-03 23:59:00,
2013-03-03 18:00:00,39.3,28.9,29.86,SE,132,4.0,10.0,66,0.00,,---,0.00,VWS V14.01,2013-03-04 00:00:00,
2013-03-03 18:04:00,39.3,28.9,29.86,ESE,119,2.0,9.0,66,0.00,,---,0.00,VWS V14.01,2013-03-04 00:04:00,
2013-03-03 18:09:00,39.3,28.9,29.86,East,93,3.0,9.0,66,0.00,,---,0.00,VWS V14.01,2013-03-04 00:09:00,
2013-03-03 18:14:00,39.2,28.8,29.86,East,101,6.0,11.0,66,0.00,,---,0.00,VWS V14.01,2013-03-04 00:14:00,
2013-03-03 18:19:00,39.2,28.8,29.86,East,91,5.0,11.0,66,0.00,,---,0.00,VWS V14.01,2013-03-04 00:19:00,
2013-03-03 18:24:00,39.2,28.8,29.86,ESE,113,2.0,11.0,66,0.00,,---,0.00,VWS V14.01,2013-03-04 00:24:00,
2013-03-03 18:29:00,39.1,28.7,29.86,SE,138,1.0,11.0,66,0.00,,---,0.00,VWS V14.01,2013-03-04 00:29:00,
2013-03-03 18:30:00,39.1,28.7,29.84,SE,132,2.0,11.0,66,0.00,,---,0.00,VWS V14.01,2013-03-04 00:30:00,
2013-03-03 18:34:00,39.1,28.7,29.84,ESE,118,3.0,5.0,66,0.00,,---,0.00,VWS V14.01,2013-03-04 00:34:00,
2013-03-03 18:39:00,39.1,28.7,29.84,ESE,121,5.0,9.0,66,0.00,,---,0.00,VWS V14.01,2013-03-04 00:39:00,
2013-03-03 18:44:00,39.1,28.7,29.84,East,100,3.0,9.0,66,0.00,,---,0.00,VWS V14.01,2013-03-04 00:44:00,
2013-03-03 18:49:00,39.1,28.7,29.84,ESE,117,0.0,9.0,66,0.00,,---,0.00,VWS V14.01,2013-03-04 00:49:00,
2013-03-03 18:54:00,39.1,28.7,29.84,SE,137,3.0,9.0,66,0.00,,---,0.00,VWS V14.01,2013-03-04 00:54:00,
2013-03-03 18:59:00,38.9,28.5,29.84,ENE,62,4.0,9.0,66,0.00,,---,0.00,VWS V14.01,2013-03-04 00:59:00,
2013-03-03 19:00:00,38.9,28.5,29.84,East,92,5.0,9.0,66,0.00,,---,0.00,VWS V14.01,2013-03-04 01:00:00,
2013-03-03 19:04:00,38.9,28.5,29.84,SE,144,2.0,7.0,66,0.00,,---,0.00,VWS V14.01,2013-03-04 01:04:00,
2013-03-03 19:09:00,39.1,28.7,29.84,ESE,111,2.0,7.0,66,0.00,,---,0.00,VWS V14.01,2013-03-04 01:09:00,
2013-03-03 19:14:00,39.1,28.7,29.84,ESE,123,3.0,7.0,66,0.00,,---,0.00,VWS V14.01,2013-03-04 01:14:00,
2013-03-03 19:19:00,39.1,28.7,29.84,ESE,102,4.0,7.0,66,0.00,,---,0.00,VWS V14.01,2013-03-04 01:19:00,
2013-03-03 19:24:00,39.2,28.8,29.84,East,101,0.0,7.0,66,0.00,,---,0.00,VWS V14.01,2013-03-04 01:24:00,
2013-03-03 19:29:00,39.3,28.9,29.84,SSE,147,3.0,8.0,66,0.00,,---,0.00,VWS V14.01,2013-03-04 01:29:00,
2013-03-03 19:30:00,39.3,28.9,29.85,ESE,105,1.0,8.0,66,0.00,,---,0.00,VWS V14.01,2013-03-04 01:30:00,
2013-03-03 19:34:00,39.3,28.9,29.85,East,98,2.0,3.0,66,0.00,,---,0.00,VWS V14.01,2013-03-04 01:34:00,
2013-03-03 19:39:00,39.3,28.9,29.85,ESE,105,1.0,6.0,66,0.00,,---,0.00,VWS V14.01,2013-03-04 01:39:00,
2013-03-03 19:44:00,39.3,28.9,29.85,East,90,1.0,6.0,66,0.00,,---,0.00,VWS V14.01,2013-03-04 01:44:00,
2013-03-03 19:49:00,39.2,28.8,29.86,East,94,6.0,6.0,66,0.00,,---,0.00,VWS V14.01,2013-03-04 01:49:00,
2013-03-03 19:54:00,39.2,28.8,29.86,ESE,108,0.0,7.0,66,0.00,,---,0.00,VWS V14.01,2013-03-04 01:54:00,
2013-03-03 19:59:00,39.1,28.7,29.86,East,93,1.0,7.0,66,0.00,,---,0.00,VWS V14.01,2013-03-04 01:59:00,
2013-03-03 20:00:00,39.1,28.7,29.85,ESE,113,2.0,7.0,66,0.00,,---,0.00,VWS V14.01,2013-03-04 02:00:00,
2013-03-03 20:04:00,39.1,28.7,29.85,East,96,2.0,5.0,66,0.00,,---,0.00,VWS V14.01,2013-03-04 02:04:00,
2013-03-03 20:09:00,38.9,28.5,29.85,ESE,107,0.0,7.0,66,0.00,,---,0.00,VWS V14.01,2013-03-04 02:09:00,
2013-03-03 20:14:00,38.8,28.4,29.85,SE,135,0.0,7.0,66,0.00,,---,0.00,VWS V14.01,2013-03-04 02:14:00,
2013-03-03 20:19:00,38.8,28.4,29.84,South,173,3.0,7.0,66,0.00,,---,0.00,VWS V14.01,2013-03-04 02:19:00,
2013-03-03 20:24:00,38.8,28.4,29.84,ESE,109,2.0,7.0,66,0.00,,---,0.00,VWS V14.01,2013-03-04 02:24:00,
2013-03-03 20:29:00,38.8,28.4,29.84,SE,136,0.0,7.0,66,0.00,,---,0.00,VWS V14.01,2013-03-04 02:29:00,
2013-03-03 20:30:00,38.8,28.4,29.84,ESE,119,1.0,8.0,66,0.00,,---,0.00,VWS V14.01,2013-03-04 02:30:00,
2013-03-03 20:34:00,38.6,28.2,29.84,ESE,105,4.0,6.0,66,0.00,,---,0.00,VWS V14.01,2013-03-04 02:34:00,
2013-03-03 20:39:00,38.6,28.2,29.84,East,101,2.0,6.0,66,0.00,,---,0.00,VWS V14.01,2013-03-04 02:39:00,
2013-03-03 20:44:00,38.6,28.2,29.84,SE,140,2.0,6.0,66,0.00,,---,0.00,VWS V14.01,2013-03-04 02:44:00,
2013-03-03 20:49:00,38.6,28.2,29.84,SE,125,3.0,6.0,66,0.00,,---,0.00,VWS V14.01,2013-03-04 02:49:00,
2013-03-03 20:54:00,38.6,28.2,29.84,SE,141,1.0,6.0,66,0.00,,---,0.00,VWS V14.01,2013-03-04 02:54:00,
2013-03-03 20:59:00,38.5,28.5,29.84,SE,126,1.0,6.0,67,0.00,,---,0.00,VWS V14.01,2013-03-04 02:59:00,
2013-03-03 21:00:00,38.3,28.3,29.84,ESE,109,0.0,6.0,67,0.00,,---,0.00,VWS V14.01,2013-03-04 03:00:00,
2013-03-03 21:04:00,38.3,28.3,29.84,East,82,3.0,5.0,67,0.00,,---,0.00,VWS V14.01,2013-03-04 03:04:00,
2013-03-03 21:09:00,38.2,28.2,29.84,ESE,122,1.0,5.0,67,0.00,,---,0.00,VWS V14.01,2013-03-04 03:09:00,
2013-03-03 21:14:00,38.2,28.2,29.84,SSE,148,2.0,5.0,67,0.00,,---,0.00,VWS V14.01,2013-03-04 03:14:00,
2013-03-03 21:19:00,38.0,28.0,29.84,East,97,1.0,7.0,67,0.00,,---,0.00,VWS V14.01,2013-03-04 03:19:00,
2013-03-03 21:24:00,38.0,28.0,29.84,ESE,114,2.0,7.0,67,0.00,,---,0.00,VWS V14.01,2013-03-04 03:24:00,
2013-03-03 21:29:00,38.0,28.0,29.84,SE,144,3.0,7.0,67,0.00,,---,0.00,VWS V14.01,2013-03-04 03:29:00,
2013-03-03 21:30:00,38.0,28.0,29.83,ESE,108,5.0,7.0,67,0.00,,---,0.00,VWS V14.01,2013-03-04 03:30:00,
2013-03-03 21:34:00,38.2,28.2,29.83,ESE,103,1.0,7.0,67,0.00,,---,0.00,VWS V14.01,2013-03-04 03:34:00,
2013-03-03 21:39:00,38.2,28.2,29.83,SE,129,2.0,10.0,67,0.00,,---,0.00,VWS V14.01,2013-03-04 03:39:00,
2013-03-03 21:44:00,38.3,28.3,29.83,ESE,111,2.0,10.0,67,0.00,,---,0.00,VWS V14.01,2013-03-04 03:44:00,
2013-03-03 21:49:00,38.3,28.3,29.82,SE,132,2.0,10.0,67,0.00,,---,0.00,VWS V14.01,2013-03-04 03:49:00,
2013-03-03 21:54:00,38.3,28.3,29.82,East,96,3.0,10.0,67,0.00,,---,0.00,VWS V14.01,2013-03-04 03:54:00,
2013-03-03 21:59:00,38.5,28.5,29.82,East,101,5.0,10.0,67,0.00,,---,0.00,VWS V14.01,2013-03-04 03:59:00,
2013-03-03 22:00:00,38.5,28.5,29.81,South,170,3.0,10.0,67,0.00,,---,0.00,VWS V14.01,2013-03-04 04:00:00,
2013-03-03 22:04:00,38.5,28.5,29.81,SSE,165,3.0,7.0,67,0.00,,---,0.00,VWS V14.01,2013-03-04 04:04:00,
2013-03-03 22:09:00,38.5,28.5,29.81,East,94,1.0,7.0,67,0.00,,---,0.00,VWS V14.01,2013-03-04 04:09:00,
2013-03-03 22:14:00,38.5,28.5,29.81,ESE,107,3.0,7.0,67,0.00,,---,0.00,VWS V14.01,2013-03-04 04:14:00,
2013-03-03 22:19:00,38.3,28.3,29.81,SSE,148,1.0,8.0,67,0.00,,---,0.00,VWS V14.01,2013-03-04 04:19:00,
2013-03-03 22:24:00,38.5,28.5,29.81,South,176,3.0,8.0,67,0.00,,---,0.00,VWS V14.01,2013-03-04 04:24:00,
2013-03-03 22:29:00,38.5,28.5,29.81,SSE,167,3.0,8.0,67,0.00,,---,0.00,VWS V14.01,2013-03-04 04:29:00,
2013-03-03 22:30:00,38.5,28.5,29.80,South,186,2.0,8.0,67,0.00,,---,0.00,VWS V14.01,2013-03-04 04:30:00,
2013-03-03 22:34:00,38.5,28.5,29.80,SSE,148,1.0,8.0,67,0.00,,---,0.00,VWS V14.01,2013-03-04 04:34:00,
2013-03-03 22:39:00,38.6,28.6,29.80,ESE,102,4.0,8.0,67,0.00,,---,0.00,VWS V14.01,2013-03-04 04:39:00,
2013-03-03 22:44:00,38.6,28.6,29.80,SE,143,4.0,8.0,67,0.00,,---,0.00,VWS V14.01,2013-03-04 04:44:00,
2013-03-03 22:49:00,38.6,28.6,29.79,South,173,3.0,8.0,67,0.00,,---,0.00,VWS V14.01,2013-03-04 04:49:00,
2013-03-03 22:54:00,38.6,28.6,29.79,SSE,160,1.0,8.0,67,0.00,,---,0.00,VWS V14.01,2013-03-04 04:54:00,
2013-03-03 22:59:00,38.6,28.6,29.79,South,169,2.0,10.0,67,0.00,,---,0.00,VWS V14.01,2013-03-04 04:59:00,
2013-03-03 23:00:00,38.6,28.6,29.79,South,181,3.0,10.0,67,0.00,,---,0.00,VWS V14.01,2013-03-04 05:00:00,
2013-03-03 23:05:00,38.8,28.4,29.79,ESE,103,5.0,7.0,66,0.00,,---,0.00,VWS V14.01,2013-03-04 05:05:00,
2013-03-03 23:10:00,38.8,28.4,29.79,SE,132,5.0,8.0,66,0.00,,---,0.00,VWS V14.01,2013-03-04 05:10:00,
2013-03-03 23:15:00,38.8,28.4,29.79,East,98,1.0,8.0,66,0.00,,---,0.00,VWS V14.01,2013-03-04 05:15:00,
2013-03-03 23:20:00,38.8,28.8,29.79,SSE,161,3.0,8.0,67,0.00,,---,0.00,VWS V14.01,2013-03-04 05:20:00,
2013-03-03 23:25:00,38.8,28.4,29.79,East,96,6.0,8.0,66,0.00,,---,0.00,VWS V14.01,2013-03-04 05:25:00,
2013-03-03 23:30:00,38.8,28.4,29.79,ESE,123,2.0,8.0,66,0.00,,---,0.00,VWS V14.01,2013-03-04 05:30:00,
2013-03-03 23:35:00,38.8,28.4,29.78,South,169,3.0,5.0,66,0.00,,---,0.00,VWS V14.01,2013-03-04 05:35:00,
2013-03-03 23:40:00,38.8,28.4,29.78,SSE,153,2.0,7.0,66,0.00,,---,0.00,VWS V14.01,2013-03-04 05:40:00,
2013-03-03 23:45:00,38.8,28.4,29.78,ESE,107,2.0,7.0,66,0.00,,---,0.00,VWS V14.01,2013-03-04 05:45:00,
2013-03-03 23:50:00,38.8,28.4,29.77,East,101,1.0,9.0,66,0.00,,---,0.00,VWS V14.01,2013-03-04 05:50:00,
2013-03-03 23:55:00,38.8,28.4,29.77,ESE,103,1.0,9.0,66,0.00,,---,0.00,VWS V14.01,2013-03-04 05:55:00,